Portada
METAR-TAF:

METAR-TAF

Aeroports :

Bratsk, Rússia

latitud: 56-22-15N, longitud: 101-41-55E, altitud: 490 m

Observació

L'informe es va fer fa 14 minuts, a les 22:30 UTC
Vent 8 kt del Sud-Oest, variant entre Sud-Est i Oest/Sud-Oest
Temperatura -10°C
Humitat 92%
Pressió 1015 hPa
Visibilitat: 2200 m
Cel cobert a una alçada de 2000 ft, Cumulonimbus.
xàfecs de neu

METAR: UIBB 262230Z 22004MPS 140V250 2200 R30/P2000D -SHSN OVC020CB M10/M11 Q1015 RESHSN R30/490334 NOSIG RMK QFE719/0958

Hora: 06:44 (22:44 UTC)

Pronòstic

L'informe es va fer fa 2 hores i 44 minuts, a les 20:00 UTC
Pronòstic vàlid del 26 a les 21 UTC al 27 a les 21 UTC
Vent 10 kt del Oest/Sud-Oest amb ràfegues de 21 kt
Visibilitat: 6000 m
Escasses núvols a una alçada de 100 ft
Cel ennuvolat a una alçada de 1600 ft, Cumulonimbus.
xàfecs de neu
Temporalment
l' 26 a les 21 UTC al 27 a les 15 UTC
Visibilitat: 1900 m
xàfecs de neu

TAF: UIBB 262000Z 2621/2721 24005G11MPS 6000 -SHSN FEW001 BKN016CB TEMPO 2621/2715 1900 SHSN

Observacions i pronòstics meteorològics de més de 4000 aeroports (METAR i TAF).

Les estacions disponibles són els punts grocs i vermells al mapa.

Posi el ratolí al punt desitjat per veure el nom de l'estació.

Feu clic per veure les observacions i els pronòstics meteorològics.

Per canviar el mapa: feu clic els botons verds amb una creu de color negre per apropar; al botó verd amb un guió per allunyar la imatge; o en les fletxes verdes per a mapes adjacents.


METAR-TAF: